sensor_id;sensor_type;location;lat;lon;timestamp;temperature;humidity
9383;DHT22;4731;49.708;10.816;2022-09-13T00:01:00;13.30;99.90
9383;DHT22;4731;49.708;10.816;2022-09-13T00:03:27;13.20;99.90
9383;DHT22;4731;49.708;10.816;2022-09-13T00:05:54;13.20;99.90
9383;DHT22;4731;49.708;10.816;2022-09-13T00:08:22;13.10;99.90
9383;DHT22;4731;49.708;10.816;2022-09-13T00:10:49;13.10;99.90
9383;DHT22;4731;49.708;10.816;2022-09-13T00:13:17;13.10;99.90
9383;DHT22;4731;49.708;10.816;2022-09-13T00:15:44;13.00;99.90
9383;DHT22;4731;49.708;10.816;2022-09-13T00:18:11;13.00;99.90
9383;DHT22;4731;49.708;10.816;2022-09-13T00:20:39;14.60;99.90
9383;DHT22;4731;49.708;10.816;2022-09-13T00:23:05;13.00;99.90
9383;DHT22;4731;49.708;10.816;2022-09-13T00:25:33;13.00;99.90
9383;DHT22;4731;49.708;10.816;2022-09-13T00:28:01;12.90;99.90
9383;DHT22;4731;49.708;10.816;2022-09-13T00:30:27;12.90;99.90
9383;DHT22;4731;49.708;10.816;2022-09-13T00:32:54;12.90;99.90
9383;DHT22;4731;49.708;10.816;2022-09-13T00:35:21;14.50;99.90
9383;DHT22;4731;49.708;10.816;2022-09-13T00:37:48;12.80;99.90
9383;DHT22;4731;49.708;10.816;2022-09-13T00:40:15;12.80;99.90
9383;DHT22;4731;49.708;10.816;2022-09-13T00:42:43;12.80;99.90
9383;DHT22;4731;49.708;10.816;2022-09-13T00:45:16;12.80;99.90
9383;DHT22;4731;49.708;10.816;2022-09-13T00:47:47;12.70;99.90
9383;DHT22;4731;49.708;10.816;2022-09-13T00:50:18;12.70;99.90
9383;DHT22;4731;49.708;10.816;2022-09-13T00:52:49;12.70;99.90
9383;DHT22;4731;49.708;10.816;2022-09-13T00:55:20;12.70;99.90
9383;DHT22;4731;49.708;10.816;2022-09-13T00:57:51;14.60;99.90
9383;DHT22;4731;49.708;10.816;2022-09-13T01:00:19;12.70;99.90
9383;DHT22;4731;49.708;10.816;2022-09-13T01:02:50;12.60;99.90
9383;DHT22;4731;49.708;10.816;2022-09-13T01:05:21;12.80;99.90
9383;DHT22;4731;49.708;10.816;2022-09-13T01:07:49;12.70;99.90
9383;DHT22;4731;49.708;10.816;2022-09-13T01:10:16;12.70;99.90
9383;DHT22;4731;49.708;10.816;2022-09-13T01:12:47;12.60;99.90
9383;DHT22;4731;49.708;10.816;2022-09-13T01:15:19;12.60;99.90
9383;DHT22;4731;49.708;10.816;2022-09-13T01:17:47;12.60;99.90
9383;DHT22;4731;49.708;10.816;2022-09-13T01:20:14;12.40;99.90
9383;DHT22;4731;49.708;10.816;2022-09-13T01:23:23;12.60;99.90
9383;DHT22;4731;49.708;10.816;2022-09-13T01:29:10;12.40;99.90
9383;DHT22;4731;49.708;10.816;2022-09-13T01:31:50;12.40;99.90
9383;DHT22;4731;49.708;10.816;2022-09-13T01:34:29;14.30;99.90
9383;DHT22;4731;49.708;10.816;2022-09-13T01:37:20;12.40;99.90
9383;DHT22;4731;49.708;10.816;2022-09-13T01:40:02;12.30;99.90
9383;DHT22;4731;49.708;10.816;2022-09-13T01:42:44;12.30;99.90
9383;DHT22;4731;49.708;10.816;2022-09-13T01:45:22;12.30;99.90
9383;DHT22;4731;49.708;10.816;2022-09-13T01:47:54;12.30;99.90
9383;DHT22;4731;49.708;10.816;2022-09-13T01:50:30;12.80;99.90
9383;DHT22;4731;49.708;10.816;2022-09-13T01:53:04;12.30;99.90
9383;DHT22;4731;49.708;10.816;2022-09-13T01:55:37;13.20;99.90
9383;DHT22;4731;49.708;10.816;2022-09-13T01:58:15;12.20;99.90
9383;DHT22;4731;49.708;10.816;2022-09-13T02:00:49;12.20;99.90
9383;DHT22;4731;49.708;10.816;2022-09-13T02:03:22;12.20;99.90
9383;DHT22;4731;49.708;10.816;2022-09-13T02:05:56;12.20;99.90
9383;DHT22;4731;49.708;10.816;2022-09-13T02:08:31;12.10;99.90
9383;DHT22;4731;49.708;10.816;2022-09-13T02:11:03;12.20;99.90
9383;DHT22;4731;49.708;10.816;2022-09-13T02:13:34;12.10;99.90
9383;DHT22;4731;49.708;10.816;2022-09-13T02:16:07;12.00;99.90
9383;DHT22;4731;49.708;10.816;2022-09-13T02:18:39;12.00;99.90
9383;DHT22;4731;49.708;10.816;2022-09-13T02:21:10;12.10;99.90
9383;DHT22;4731;49.708;10.816;2022-09-13T02:23:41;12.00;99.90
9383;DHT22;4731;49.708;10.816;2022-09-13T02:26:10;12.00;99.90
9383;DHT22;4731;49.708;10.816;2022-09-13T02:28:42;12.10;99.90
9383;DHT22;4731;49.708;10.816;2022-09-13T02:31:11;11.90;99.90
9383;DHT22;4731;49.708;10.816;2022-09-13T02:33:43;12.00;99.90
9383;DHT22;4731;49.708;10.816;2022-09-13T02:36:13;11.90;99.90
9383;DHT22;4731;49.708;10.816;2022-09-13T02:38:44;11.90;99.90
9383;DHT22;4731;49.708;10.816;2022-09-13T02:41:17;11.90;99.90
9383;DHT22;4731;49.708;10.816;2022-09-13T02:43:49;12.00;99.90
9383;DHT22;4731;49.708;10.816;2022-09-13T02:46:24;14.50;99.90
9383;DHT22;4731;49.708;10.816;2022-09-13T02:48:59;11.90;99.90
9383;DHT22;4731;49.708;10.816;2022-09-13T02:51:34;11.90;99.90
9383;DHT22;4731;49.708;10.816;2022-09-13T02:54:09;11.90;99.90
9383;DHT22;4731;49.708;10.816;2022-09-13T02:56:45;11.90;99.90
9383;DHT22;4731;49.708;10.816;2022-09-13T02:59:16;11.90;99.90
9383;DHT22;4731;49.708;10.816;2022-09-13T03:01:46;11.90;99.90
9383;DHT22;4731;49.708;10.816;2022-09-13T03:04:16;11.90;99.90
9383;DHT22;4731;49.708;10.816;2022-09-13T03:06:42;14.50;99.90
9383;DHT22;4731;49.708;10.816;2022-09-13T03:09:10;11.90;99.90
9383;DHT22;4731;49.708;10.816;2022-09-13T03:11:52;11.70;99.90
9383;DHT22;4731;49.708;10.816;2022-09-13T03:14:33;11.80;99.90
9383;DHT22;4731;49.708;10.816;2022-09-13T03:17:12;11.80;99.90
9383;DHT22;4731;49.708;10.816;2022-09-13T03:19:56;11.80;99.90
9383;DHT22;4731;49.708;10.816;2022-09-13T03:22:44;11.80;99.90
9383;DHT22;4731;49.708;10.816;2022-09-13T03:25:18;11.80;99.90
9383;DHT22;4731;49.708;10.816;2022-09-13T03:27:55;11.80;99.90
9383;DHT22;4731;49.708;10.816;2022-09-13T03:30:27;11.80;99.90
9383;DHT22;4731;49.708;10.816;2022-09-13T03:33:01;14.00;99.90
9383;DHT22;4731;49.708;10.816;2022-09-13T03:35:37;11.70;99.90
9383;DHT22;4731;49.708;10.816;2022-09-13T03:38:07;11.80;99.90
9383;DHT22;4731;49.708;10.816;2022-09-13T03:40:40;11.70;99.90
9383;DHT22;4731;49.708;10.816;2022-09-13T03:43:13;11.70;99.90
9383;DHT22;4731;49.708;10.816;2022-09-13T03:45:45;11.60;99.90
9383;DHT22;4731;49.708;10.816;2022-09-13T03:48:14;11.60;99.90
9383;DHT22;4731;49.708;10.816;2022-09-13T03:50:45;11.80;99.90
9383;DHT22;4731;49.708;10.816;2022-09-13T03:53:14;12.40;99.90
9383;DHT22;4731;49.708;10.816;2022-09-13T03:55:42;11.70;99.90
9383;DHT22;4731;49.708;10.816;2022-09-13T03:58:11;11.60;99.90
9383;DHT22;4731;49.708;10.816;2022-09-13T04:00:38;11.60;99.90
9383;DHT22;4731;49.708;10.816;2022-09-13T04:03:07;11.60;99.90
9383;DHT22;4731;49.708;10.816;2022-09-13T04:05:34;13.20;99.90
9383;DHT22;4731;49.708;10.816;2022-09-13T04:08:04;11.60;99.90
9383;DHT22;4731;49.708;10.816;2022-09-13T04:10:32;11.60;99.90
9383;DHT22;4731;49.708;10.816;2022-09-13T04:12:59;11.60;99.90
9383;DHT22;4731;49.708;10.816;2022-09-13T04:15:26;11.50;99.90
9383;DHT22;4731;49.708;10.816;2022-09-13T04:17:53;11.50;99.90
9383;DHT22;4731;49.708;10.816;2022-09-13T04:20:20;11.50;99.90
9383;DHT22;4731;49.708;10.816;2022-09-13T04:22:50;11.60;99.90
9383;DHT22;4731;49.708;10.816;2022-09-13T04:25:19;11.50;99.90
9383;DHT22;4731;49.708;10.816;2022-09-13T04:27:46;11.50;99.90
9383;DHT22;4731;49.708;10.816;2022-09-13T04:30:14;11.50;99.90
9383;DHT22;4731;49.708;10.816;2022-09-13T04:32:41;11.50;99.90
9383;DHT22;4731;49.708;10.816;2022-09-13T04:35:09;11.40;99.90
9383;DHT22;4731;49.708;10.816;2022-09-13T04:37:36;11.70;99.90
9383;DHT22;4731;49.708;10.816;2022-09-13T04:40:03;11.40;99.90
9383;DHT22;4731;49.708;10.816;2022-09-13T04:42:32;11.40;99.90
9383;DHT22;4731;49.708;10.816;2022-09-13T04:44:58;11.40;99.90
9383;DHT22;4731;49.708;10.816;2022-09-13T04:47:25;11.40;99.90
9383;DHT22;4731;49.708;10.816;2022-09-13T04:49:52;11.40;99.90
9383;DHT22;4731;49.708;10.816;2022-09-13T04:52:19;12.60;99.90
9383;DHT22;4731;49.708;10.816;2022-09-13T04:54:46;11.40;99.90
9383;DHT22;4731;49.708;10.816;2022-09-13T04:57:13;11.40;99.90
9383;DHT22;4731;49.708;10.816;2022-09-13T04:59:42;13.90;99.90
9383;DHT22;4731;49.708;10.816;2022-09-13T05:02:09;11.40;99.90
9383;DHT22;4731;49.708;10.816;2022-09-13T05:04:36;11.40;99.90
9383;DHT22;4731;49.708;10.816;2022-09-13T05:07:03;11.00;99.90
9383;DHT22;4731;49.708;10.816;2022-09-13T05:09:30;11.50;99.90
9383;DHT22;4731;49.708;10.816;2022-09-13T05:11:57;11.50;99.90
9383;DHT22;4731;49.708;10.816;2022-09-13T05:14:24;11.60;99.90
9383;DHT22;4731;49.708;10.816;2022-09-13T05:16:52;11.60;99.90
9383;DHT22;4731;49.708;10.816;2022-09-13T05:19:19;11.70;99.90
9383;DHT22;4731;49.708;10.816;2022-09-13T05:21:46;11.90;99.90
9383;DHT22;4731;49.708;10.816;2022-09-13T05:24:13;11.90;99.90
9383;DHT22;4731;49.708;10.816;2022-09-13T05:26:39;12.00;99.90
9383;DHT22;4731;49.708;10.816;2022-09-13T05:29:06;12.60;99.90
9383;DHT22;4731;49.708;10.816;2022-09-13T05:31:36;12.10;99.90
9383;DHT22;4731;49.708;10.816;2022-09-13T05:34:06;12.40;99.90
9383;DHT22;4731;49.708;10.816;2022-09-13T05:36:35;12.50;99.90
9383;DHT22;4731;49.708;10.816;2022-09-13T05:39:02;12.70;99.90
9383;DHT22;4731;49.708;10.816;2022-09-13T05:41:28;12.90;99.90
9383;DHT22;4731;49.708;10.816;2022-09-13T05:43:56;13.10;99.90
9383;DHT22;4731;49.708;10.816;2022-09-13T05:46:22;15.10;99.90
9383;DHT22;4731;49.708;10.816;2022-09-13T05:48:49;15.20;99.90
9383;DHT22;4731;49.708;10.816;2022-09-13T05:51:19;14.50;99.90
9383;DHT22;4731;49.708;10.816;2022-09-13T05:53:47;16.30;99.90
9383;DHT22;4731;49.708;10.816;2022-09-13T05:56:15;14.50;99.90
9383;DHT22;4731;49.708;10.816;2022-09-13T05:58:43;16.30;99.90
9383;DHT22;4731;49.708;10.816;2022-09-13T06:01:11;14.70;99.90
9383;DHT22;4731;49.708;10.816;2022-09-13T06:03:38;16.70;99.90
9383;DHT22;4731;49.708;10.816;2022-09-13T06:06:06;14.50;99.90
9383;DHT22;4731;49.708;10.816;2022-09-13T06:08:35;14.30;99.90
9383;DHT22;4731;49.708;10.816;2022-09-13T06:11:04;14.10;99.90
9383;DHT22;4731;49.708;10.816;2022-09-13T06:13:31;13.80;99.90
9383;DHT22;4731;49.708;10.816;2022-09-13T06:16:00;14.80;99.90
9383;DHT22;4731;49.708;10.816;2022-09-13T06:18:27;16.90;99.90
9383;DHT22;4731;49.708;10.816;2022-09-13T06:20:57;13.40;99.90
9383;DHT22;4731;49.708;10.816;2022-09-13T06:23:24;15.20;99.90
9383;DHT22;4731;49.708;10.816;2022-09-13T06:26:00;13.40;99.90
9383;DHT22;4731;49.708;10.816;2022-09-13T06:28:27;15.10;99.90
9383;DHT22;4731;49.708;10.816;2022-09-13T06:30:59;13.40;99.90
9383;DHT22;4731;49.708;10.816;2022-09-13T06:33:26;14.50;99.90
9383;DHT22;4731;49.708;10.816;2022-09-13T06:35:53;13.80;99.90
9383;DHT22;4731;49.708;10.816;2022-09-13T06:38:20;15.00;99.90
9383;DHT22;4731;49.708;10.816;2022-09-13T06:40:46;14.30;99.90
9383;DHT22;4731;49.708;10.816;2022-09-13T06:43:15;14.60;99.90
9383;DHT22;4731;49.708;10.816;2022-09-13T06:45:41;15.70;99.90
9383;DHT22;4731;49.708;10.816;2022-09-13T06:48:08;15.20;99.90
9383;DHT22;4731;49.708;10.816;2022-09-13T06:50:35;15.40;99.90
9383;DHT22;4731;49.708;10.816;2022-09-13T06:53:02;17.50;99.90
9383;DHT22;4731;49.708;10.816;2022-09-13T06:55:28;15.60;99.90
9383;DHT22;4731;49.708;10.816;2022-09-13T06:57:56;16.30;99.90
9383;DHT22;4731;49.708;10.816;2022-09-13T07:00:24;16.10;99.90
9383;DHT22;4731;49.708;10.816;2022-09-13T07:02:51;16.30;99.90
9383;DHT22;4731;49.708;10.816;2022-09-13T07:05:18;16.50;99.90
9383;DHT22;4731;49.708;10.816;2022-09-13T07:07:45;16.80;99.90
9383;DHT22;4731;49.708;10.816;2022-09-13T07:10:12;17.30;99.90
9383;DHT22;4731;49.708;10.816;2022-09-13T07:12:40;17.70;99.90
9383;DHT22;4731;49.708;10.816;2022-09-13T07:15:07;17.70;99.90
9383;DHT22;4731;49.708;10.816;2022-09-13T07:17:35;18.00;99.90
9383;DHT22;4731;49.708;10.816;2022-09-13T07:20:02;18.40;99.90
9383;DHT22;4731;49.708;10.816;2022-09-13T07:22:32;17.70;99.90
9383;DHT22;4731;49.708;10.816;2022-09-13T07:24:58;17.60;99.90
9383;DHT22;4731;49.708;10.816;2022-09-13T07:27:26;18.20;99.90
9383;DHT22;4731;49.708;10.816;2022-09-13T07:29:53;18.10;99.90
9383;DHT22;4731;49.708;10.816;2022-09-13T07:32:20;19.60;99.90
9383;DHT22;4731;49.708;10.816;2022-09-13T07:34:49;18.30;99.90
9383;DHT22;4731;49.708;10.816;2022-09-13T07:37:16;18.90;99.90
9383;DHT22;4731;49.708;10.816;2022-09-13T07:39:42;19.40;99.90
9383;DHT22;4731;49.708;10.816;2022-09-13T07:42:09;19.90;99.90
9383;DHT22;4731;49.708;10.816;2022-09-13T07:44:36;19.70;99.90
9383;DHT22;4731;49.708;10.816;2022-09-13T07:47:03;19.30;99.90
9383;DHT22;4731;49.708;10.816;2022-09-13T07:49:30;19.10;99.90
9383;DHT22;4731;49.708;10.816;2022-09-13T07:51:58;18.50;99.90
9383;DHT22;4731;49.708;10.816;2022-09-13T07:54:25;18.70;99.90
9383;DHT22;4731;49.708;10.816;2022-09-13T07:56:52;18.70;99.90
9383;DHT22;4731;49.708;10.816;2022-09-13T07:59:19;18.90;99.90
9383;DHT22;4731;49.708;10.816;2022-09-13T08:01:47;18.60;99.90
9383;DHT22;4731;49.708;10.816;2022-09-13T08:04:16;18.50;99.90
9383;DHT22;4731;49.708;10.816;2022-09-13T08:06:43;19.10;99.90
9383;DHT22;4731;49.708;10.816;2022-09-13T08:09:13;18.90;99.90
9383;DHT22;4731;49.708;10.816;2022-09-13T08:11:42;19.60;99.90
9383;DHT22;4731;49.708;10.816;2022-09-13T08:14:12;18.70;99.90
9383;DHT22;4731;49.708;10.816;2022-09-13T08:16:39;19.20;99.90
9383;DHT22;4731;49.708;10.816;2022-09-13T08:19:09;20.60;99.90
9383;DHT22;4731;49.708;10.816;2022-09-13T08:21:37;22.20;99.90
9383;DHT22;4731;49.708;10.816;2022-09-13T08:24:06;22.30;99.90
9383;DHT22;4731;49.708;10.816;2022-09-13T08:26:35;22.40;99.90
9383;DHT22;4731;49.708;10.816;2022-09-13T08:29:04;23.10;99.90
9383;DHT22;4731;49.708;10.816;2022-09-13T08:31:31;23.40;99.90
9383;DHT22;4731;49.708;10.816;2022-09-13T08:33:58;22.60;99.90
9383;DHT22;4731;49.708;10.816;2022-09-13T08:36:26;21.50;99.90
9383;DHT22;4731;49.708;10.816;2022-09-13T08:38:54;21.20;99.90
9383;DHT22;4731;49.708;10.816;2022-09-13T08:44:30;21.20;99.90
9383;DHT22;4731;49.708;10.816;2022-09-13T08:47:05;21.80;99.90
9383;DHT22;4731;49.708;10.816;2022-09-13T08:49:39;20.30;99.90
9383;DHT22;4731;49.708;10.816;2022-09-13T08:52:19;22.10;99.90
9383;DHT22;4731;49.708;10.816;2022-09-13T08:54:50;20.20;99.90
9383;DHT22;4731;49.708;10.816;2022-09-13T08:57:23;20.50;99.90
9383;DHT22;4731;49.708;10.816;2022-09-13T09:00:00;19.70;99.90
9383;DHT22;4731;49.708;10.816;2022-09-13T09:02:41;20.10;99.90
9383;DHT22;4731;49.708;10.816;2022-09-13T09:05:14;20.50;99.90
9383;DHT22;4731;49.708;10.816;2022-09-13T09:07:46;21.10;99.90
9383;DHT22;4731;49.708;10.816;2022-09-13T09:10:18;22.40;99.90
9383;DHT22;4731;49.708;10.816;2022-09-13T09:12:48;23.60;99.90
9383;DHT22;4731;49.708;10.816;2022-09-13T09:15:22;24.80;99.90
9383;DHT22;4731;49.708;10.816;2022-09-13T09:17:55;25.40;99.90
9383;DHT22;4731;49.708;10.816;2022-09-13T09:20:26;25.50;99.90
9383;DHT22;4731;49.708;10.816;2022-09-13T09:22:55;25.20;99.90
9383;DHT22;4731;49.708;10.816;2022-09-13T09:25:23;24.60;99.90
9383;DHT22;4731;49.708;10.816;2022-09-13T09:27:51;22.80;99.90
9383;DHT22;4731;49.708;10.816;2022-09-13T09:30:19;22.20;99.90
9383;DHT22;4731;49.708;10.816;2022-09-13T09:35:58;22.10;99.90
9383;DHT22;4731;49.708;10.816;2022-09-13T09:38:36;22.00;99.90
9383;DHT22;4731;49.708;10.816;2022-09-13T09:41:09;21.80;99.90
9383;DHT22;4731;49.708;10.816;2022-09-13T09:43:42;21.50;99.90
9383;DHT22;4731;49.708;10.816;2022-09-13T09:46:13;20.50;99.90
9383;DHT22;4731;49.708;10.816;2022-09-13T09:48:45;20.30;99.90
9383;DHT22;4731;49.708;10.816;2022-09-13T09:51:16;20.30;99.90
9383;DHT22;4731;49.708;10.816;2022-09-13T09:53:46;20.10;99.90
9383;DHT22;4731;49.708;10.816;2022-09-13T09:56:20;22.10;99.90
9383;DHT22;4731;49.708;10.816;2022-09-13T09:58:48;19.90;99.90
9383;DHT22;4731;49.708;10.816;2022-09-13T10:01:20;19.80;99.90
9383;DHT22;4731;49.708;10.816;2022-09-13T10:03:51;20.00;99.90
9383;DHT22;4731;49.708;10.816;2022-09-13T10:06:19;20.10;99.90
9383;DHT22;4731;49.708;10.816;2022-09-13T10:08:52;20.10;99.90
9383;DHT22;4731;49.708;10.816;2022-09-13T10:11:20;22.20;99.90
9383;DHT22;4731;49.708;10.816;2022-09-13T10:13:59;21.10;99.90
9383;DHT22;4731;49.708;10.816;2022-09-13T10:16:29;21.10;99.90
9383;DHT22;4731;49.708;10.816;2022-09-13T10:19:16;21.00;99.90
9383;DHT22;4731;49.708;10.816;2022-09-13T10:21:59;20.90;99.90
9383;DHT22;4731;49.708;10.816;2022-09-13T10:24:26;21.90;99.90
9383;DHT22;4731;49.708;10.816;2022-09-13T10:26:54;21.70;99.90
9383;DHT22;4731;49.708;10.816;2022-09-13T10:29:21;22.00;99.90
9383;DHT22;4731;49.708;10.816;2022-09-13T10:31:51;21.80;99.90
9383;DHT22;4731;49.708;10.816;2022-09-13T10:34:22;22.50;99.90
9383;DHT22;4731;49.708;10.816;2022-09-13T10:36:53;23.80;99.90
9383;DHT22;4731;49.708;10.816;2022-09-13T10:39:23;24.60;99.90
9383;DHT22;4731;49.708;10.816;2022-09-13T10:41:52;25.10;99.90
9383;DHT22;4731;49.708;10.816;2022-09-13T10:44:29;25.30;99.90
9383;DHT22;4731;49.708;10.816;2022-09-13T10:47:02;25.90;99.90
9383;DHT22;4731;49.708;10.816;2022-09-13T10:49:43;26.40;99.90
9383;DHT22;4731;49.708;10.816;2022-09-13T10:52:31;26.80;99.90
9383;DHT22;4731;49.708;10.816;2022-09-13T10:55:24;27.40;99.90
9383;DHT22;4731;49.708;10.816;2022-09-13T10:57:52;27.20;99.90
9383;DHT22;4731;49.708;10.816;2022-09-13T11:00:20;27.40;99.90
9383;DHT22;4731;49.708;10.816;2022-09-13T11:03:17;27.30;99.90
9383;DHT22;4731;49.708;10.816;2022-09-13T11:05:51;28.10;99.90
9383;DHT22;4731;49.708;10.816;2022-09-13T11:08:36;29.30;99.90
9383;DHT22;4731;49.708;10.816;2022-09-13T11:11:12;30.20;99.90
9383;DHT22;4731;49.708;10.816;2022-09-13T11:13:50;31.50;99.90
9383;DHT22;4731;49.708;10.816;2022-09-13T11:16:30;30.30;99.90
9383;DHT22;4731;49.708;10.816;2022-09-13T11:19:35;28.80;99.90
9383;DHT22;4731;49.708;10.816;2022-09-13T11:22:18;27.00;99.90
9383;DHT22;4731;49.708;10.816;2022-09-13T11:25:00;25.90;99.90
9383;DHT22;4731;49.708;10.816;2022-09-13T11:27:34;24.70;99.90
9383;DHT22;4731;49.708;10.816;2022-09-13T11:30:10;23.80;99.90
9383;DHT22;4731;49.708;10.816;2022-09-13T11:32:51;24.20;99.90
9383;DHT22;4731;49.708;10.816;2022-09-13T11:35:42;24.40;99.90
9383;DHT22;4731;49.708;10.816;2022-09-13T11:38:34;24.30;99.90
9383;DHT22;4731;49.708;10.816;2022-09-13T11:41:11;24.10;99.90
9383;DHT22;4731;49.708;10.816;2022-09-13T11:43:51;23.60;99.90
9383;DHT22;4731;49.708;10.816;2022-09-13T11:46:26;23.10;99.90
9383;DHT22;4731;49.708;10.816;2022-09-13T11:49:17;22.90;99.90
9383;DHT22;4731;49.708;10.816;2022-09-13T11:51:57;22.80;99.90
9383;DHT22;4731;49.708;10.816;2022-09-13T11:54:38;22.80;99.90
9383;DHT22;4731;49.708;10.816;2022-09-13T11:57:11;22.30;99.90
9383;DHT22;4731;49.708;10.816;2022-09-13T11:59:42;22.20;99.90
9383;DHT22;4731;49.708;10.816;2022-09-13T12:02:17;22.00;99.90
9383;DHT22;4731;49.708;10.816;2022-09-13T12:04:50;22.30;99.90
9383;DHT22;4731;49.708;10.816;2022-09-13T12:07:26;21.80;99.90
9383;DHT22;4731;49.708;10.816;2022-09-13T12:09:59;22.20;99.90
9383;DHT22;4731;49.708;10.816;2022-09-13T12:12:31;21.60;99.90
9383;DHT22;4731;49.708;10.816;2022-09-13T12:15:03;21.60;99.90
9383;DHT22;4731;49.708;10.816;2022-09-13T12:17:35;21.50;99.90
9383;DHT22;4731;49.708;10.816;2022-09-13T12:20:05;22.50;99.90
9383;DHT22;4731;49.708;10.816;2022-09-13T12:22:39;21.30;99.90
9383;DHT22;4731;49.708;10.816;2022-09-13T12:25:16;23.80;99.90
9383;DHT22;4731;49.708;10.816;2022-09-13T12:27:50;21.50;99.90
9383;DHT22;4731;49.708;10.816;2022-09-13T12:30:21;21.60;99.90
9383;DHT22;4731;49.708;10.816;2022-09-13T12:32:48;21.60;99.90
9383;DHT22;4731;49.708;10.816;2022-09-13T12:35:21;21.70;99.90
9383;DHT22;4731;49.708;10.816;2022-09-13T12:38:03;21.70;99.90
9383;DHT22;4731;49.708;10.816;2022-09-13T12:40:46;21.90;99.90
9383;DHT22;4731;49.708;10.816;2022-09-13T12:47:02;21.90;99.90
9383;DHT22;4731;49.708;10.816;2022-09-13T12:49:58;22.00;99.90
9383;DHT22;4731;49.708;10.816;2022-09-13T12:52:32;21.90;99.90
9383;DHT22;4731;49.708;10.816;2022-09-13T12:55:32;21.80;99.90
9383;DHT22;4731;49.708;10.816;2022-09-13T12:58:15;21.90;99.90
9383;DHT22;4731;49.708;10.816;2022-09-13T13:00:48;21.80;99.90
9383;DHT22;4731;49.708;10.816;2022-09-13T13:03:29;22.60;99.90
9383;DHT22;4731;49.708;10.816;2022-09-13T13:06:06;21.90;99.90
9383;DHT22;4731;49.708;10.816;2022-09-13T13:08:35;22.00;99.90
9383;DHT22;4731;49.708;10.816;2022-09-13T13:11:05;22.00;99.90
9383;DHT22;4731;49.708;10.816;2022-09-13T13:13:35;22.30;99.90
9383;DHT22;4731;49.708;10.816;2022-09-13T13:16:20;22.50;99.90
9383;DHT22;4731;49.708;10.816;2022-09-13T13:18:49;22.60;99.90
9383;DHT22;4731;49.708;10.816;2022-09-13T13:21:35;22.90;99.90
9383;DHT22;4731;49.708;10.816;2022-09-13T13:27:36;23.20;99.90
9383;DHT22;4731;49.708;10.816;2022-09-13T13:30:41;23.10;99.90
9383;DHT22;4731;49.708;10.816;2022-09-13T13:33:18;23.00;99.90
9383;DHT22;4731;49.708;10.816;2022-09-13T13:35:45;23.10;99.90
9383;DHT22;4731;49.708;10.816;2022-09-13T13:41:05;23.20;99.90
9383;DHT22;4731;49.708;10.816;2022-09-13T13:43:35;23.20;99.90
9383;DHT22;4731;49.708;10.816;2022-09-13T13:46:25;23.40;99.90
9383;DHT22;4731;49.708;10.816;2022-09-13T13:48:53;23.50;99.90
9383;DHT22;4731;49.708;10.816;2022-09-13T13:51:24;23.70;99.90
9383;DHT22;4731;49.708;10.816;2022-09-13T13:54:00;24.20;99.90
9383;DHT22;4731;49.708;10.816;2022-09-13T13:56:44;25.30;99.90
9383;DHT22;4731;49.708;10.816;2022-09-13T13:59:17;25.90;99.90
9383;DHT22;4731;49.708;10.816;2022-09-13T14:01:49;25.90;99.90
9383;DHT22;4731;49.708;10.816;2022-09-13T14:04:51;25.60;99.90
9383;DHT22;4731;49.708;10.816;2022-09-13T14:07:32;25.40;99.90
9383;DHT22;4731;49.708;10.816;2022-09-13T14:10:05;25.20;99.90
9383;DHT22;4731;49.708;10.816;2022-09-13T14:12:48;24.70;99.90
9383;DHT22;4731;49.708;10.816;2022-09-13T14:15:38;24.50;99.90
9383;DHT22;4731;49.708;10.816;2022-09-13T14:21:24;24.50;99.90
9383;DHT22;4731;49.708;10.816;2022-09-13T14:24:08;24.80;99.90
9383;DHT22;4731;49.708;10.816;2022-09-13T14:26:35;25.00;99.90
9383;DHT22;4731;49.708;10.816;2022-09-13T14:29:06;24.90;99.90
9383;DHT22;4731;49.708;10.816;2022-09-13T14:31:36;24.80;99.90
9383;DHT22;4731;49.708;10.816;2022-09-13T14:34:03;24.70;99.90
9383;DHT22;4731;49.708;10.816;2022-09-13T14:36:30;24.80;99.90
9383;DHT22;4731;49.708;10.816;2022-09-13T14:38:58;24.70;99.90
9383;DHT22;4731;49.708;10.816;2022-09-13T14:41:30;24.70;99.90
9383;DHT22;4731;49.708;10.816;2022-09-13T14:44:14;24.60;99.90
9383;DHT22;4731;49.708;10.816;2022-09-13T14:46:43;24.40;99.90
9383;DHT22;4731;49.708;10.816;2022-09-13T14:49:17;24.20;99.90
9383;DHT22;4731;49.708;10.816;2022-09-13T14:51:51;24.10;99.90
9383;DHT22;4731;49.708;10.816;2022-09-13T14:54:26;24.10;99.90
9383;DHT22;4731;49.708;10.816;2022-09-13T14:56:57;24.00;99.90
9383;DHT22;4731;49.708;10.816;2022-09-13T14:59:30;24.00;99.90
9383;DHT22;4731;49.708;10.816;2022-09-13T15:02:04;24.10;99.90
9383;DHT22;4731;49.708;10.816;2022-09-13T15:04:32;24.30;99.90
9383;DHT22;4731;49.708;10.816;2022-09-13T15:07:07;24.30;99.90
9383;DHT22;4731;49.708;10.816;2022-09-13T15:09:34;24.20;99.90
9383;DHT22;4731;49.708;10.816;2022-09-13T15:12:03;24.00;99.90
9383;DHT22;4731;49.708;10.816;2022-09-13T15:14:32;23.90;99.90
9383;DHT22;4731;49.708;10.816;2022-09-13T15:17:08;23.60;99.90
9383;DHT22;4731;49.708;10.816;2022-09-13T15:19:38;23.40;99.90
9383;DHT22;4731;49.708;10.816;2022-09-13T15:22:18;23.30;99.90
9383;DHT22;4731;49.708;10.816;2022-09-13T15:24:49;23.00;99.90
9383;DHT22;4731;49.708;10.816;2022-09-13T15:27:19;22.90;99.90
9383;DHT22;4731;49.708;10.816;2022-09-13T15:29:50;22.70;99.90
9383;DHT22;4731;49.708;10.816;2022-09-13T15:32:22;22.60;99.90
9383;DHT22;4731;49.708;10.816;2022-09-13T15:34:50;22.60;99.90
9383;DHT22;4731;49.708;10.816;2022-09-13T15:37:17;22.70;99.90
9383;DHT22;4731;49.708;10.816;2022-09-13T15:40:07;22.70;99.90
9383;DHT22;4731;49.708;10.816;2022-09-13T15:42:37;22.70;99.90
9383;DHT22;4731;49.708;10.816;2022-09-13T15:45:04;22.80;99.90
9383;DHT22;4731;49.708;10.816;2022-09-13T15:47:32;22.80;99.90
9383;DHT22;4731;49.708;10.816;2022-09-13T15:49:59;24.40;99.90
9383;DHT22;4731;49.708;10.816;2022-09-13T15:52:26;22.80;99.90
9383;DHT22;4731;49.708;10.816;2022-09-13T15:54:53;22.70;99.90
9383;DHT22;4731;49.708;10.816;2022-09-13T15:57:22;22.70;99.90
9383;DHT22;4731;49.708;10.816;2022-09-13T15:59:49;22.70;99.90
9383;DHT22;4731;49.708;10.816;2022-09-13T16:02:19;22.60;99.90
9383;DHT22;4731;49.708;10.816;2022-09-13T16:04:48;22.60;99.90
9383;DHT22;4731;49.708;10.816;2022-09-13T16:07:15;23.00;99.90
9383;DHT22;4731;49.708;10.816;2022-09-13T16:09:43;22.50;99.90
9383;DHT22;4731;49.708;10.816;2022-09-13T16:12:10;22.30;99.90
9383;DHT22;4731;49.708;10.816;2022-09-13T16:14:37;22.20;99.90
9383;DHT22;4731;49.708;10.816;2022-09-13T16:17:06;22.00;99.90
9383;DHT22;4731;49.708;10.816;2022-09-13T16:19:33;21.90;99.90
9383;DHT22;4731;49.708;10.816;2022-09-13T16:22:02;21.80;99.90
9383;DHT22;4731;49.708;10.816;2022-09-13T16:24:29;21.60;99.90
9383;DHT22;4731;49.708;10.816;2022-09-13T16:26:58;21.60;99.90
9383;DHT22;4731;49.708;10.816;2022-09-13T16:29:25;21.60;99.90
9383;DHT22;4731;49.708;10.816;2022-09-13T16:31:52;21.60;99.90
9383;DHT22;4731;49.708;10.816;2022-09-13T16:34:22;21.50;99.90
9383;DHT22;4731;49.708;10.816;2022-09-13T16:36:51;21.40;99.90